Time;durP1;ratioP1;P1;durP2;ratioP2;P2;SDS_P1;SDS_P2;PMS_P1;PMS_P2;Temp;Humidity;BMP_temperature;BMP_pressure;BME280_temperature;BME280_humidity;BME280_pressure;Samples;Min_cycle;Max_cycle;Signal;HPM_P1;HPM_P2
2022/06/05 00:02:56;;;;;;;11.50;9.27;;;18.20;99.90;;;;;;5136341;28;20354;-75
2022/06/05 00:05:43;;;;;;;10.65;9.15;;;18.20;99.90;;;;;;5126528;28;20573;-75
2022/06/05 00:08:24;;;;;;;13.63;9.48;;;18.20;99.90;;;;;;5126316;28;20053;-74
2022/06/05 00:10:58;;;;;;;11.10;8.63;;;18.20;99.90;;;;;;5132574;28;20047;-75
2022/06/05 00:13:44;;;;;;;13.98;9.43;;;18.10;99.90;;;;;;5130867;28;20971;-75
2022/06/05 00:16:21;;;;;;;12.98;9.25;;;18.10;99.90;;;;;;5193697;28;20066;-75
2022/06/05 00:18:54;;;;;;;13.13;9.20;;;18.10;99.90;;;;;;5133214;28;20447;-77
2022/06/05 00:21:27;;;;;;;13.10;8.40;;;18.00;99.90;;;;;;5134123;28;20404;-80
2022/06/05 00:23:59;;;;;;;9.52;8.10;;;18.00;99.90;;;;;;5132236;28;21281;-74
2022/06/05 00:26:31;;;;;;;12.98;9.38;;;18.00;99.90;;;;;;5133730;28;20042;-75
2022/06/05 00:29:28;;;;;;;12.70;8.35;;;18.00;99.90;;;;;;5136146;28;20576;-77
2022/06/05 00:32:37;;;;;;;11.30;7.82;;;18.00;99.90;;;;;;5138630;28;20051;-75
2022/06/05 00:35:15;;;;;;;11.10;8.40;;;18.00;99.90;;;;;;5183431;28;20406;-77
2022/06/05 00:38:00;;;;;;;10.82;8.80;;;18.00;99.90;;;;;;5134537;28;20050;-76
2022/06/05 00:40:52;;;;;;;13.23;8.48;;;17.90;99.90;;;;;;5136694;28;20064;-75
2022/06/05 00:43:25;;;;;;;13.13;8.32;;;17.90;99.90;;;;;;5138031;28;20057;-77
2022/06/05 00:45:57;;;;;;;10.90;9.13;;;17.90;99.90;;;;;;5138057;28;20500;-75
2022/06/05 00:48:30;;;;;;;15.02;8.88;;;17.80;99.90;;;;;;5134951;28;20050;-75
2022/06/05 00:51:03;;;;;;;13.68;9.02;;;17.80;99.90;;;;;;5138892;28;20050;-75
2022/06/05 00:53:36;;;;;;;12.93;8.27;;;17.80;99.90;;;;;;5138763;28;20069;-74
2022/06/05 00:56:12;;;;;;;15.55;8.02;;;17.80;99.90;;;;;;5137587;28;20146;-77
2022/06/05 00:58:45;;;;;;;13.35;8.93;;;17.80;99.90;;;;;;5140031;28;20050;-74
2022/06/05 01:01:18;;;;;;;9.50;8.17;;;17.70;99.90;;;;;;5138186;28;20043;-75
2022/06/05 01:03:50;;;;;;;9.35;8.35;;;17.60;99.90;;;;;;5140218;28;20079;-75
2022/06/05 01:06:22;;;;;;;11.23;8.35;;;17.60;99.90;;;;;;5209994;28;20413;-74
2022/06/05 01:08:55;;;;;;;11.70;8.25;;;17.50;99.90;;;;;;5134162;28;20061;-74
2022/06/05 01:11:33;;;;;;;16.00;8.85;;;17.50;99.90;;;;;;5135420;28;20055;-75
2022/06/05 01:14:50;;;;;;;11.60;8.63;;;17.50;99.90;;;;;;5137157;28;20046;-75
2022/06/05 01:17:46;;;;;;;11.68;8.95;;;17.40;99.90;;;;;;5070171;28;20071;-72
2022/06/05 01:20:37;;;;;;;10.25;8.48;;;17.40;99.90;;;;;;5132775;28;20051;-75
2022/06/05 01:23:27;;;;;;;13.95;9.20;;;17.40;99.90;;;;;;5137935;28;20050;-74
2022/06/05 01:26:12;;;;;;;10.75;8.45;;;17.30;99.90;;;;;;5132813;28;20050;-75
2022/06/05 01:28:58;;;;;;;9.82;7.97;;;17.30;99.90;;;;;;5132415;28;20375;-78
2022/06/05 01:31:52;;;;;;;13.45;8.48;;;17.30;99.90;;;;;;5135886;28;20127;-75
2022/06/05 01:34:43;;;;;;;11.68;8.40;;;17.30;99.90;;;;;;5134678;28;20061;-74
2022/06/05 01:37:39;;;;;;;13.27;9.05;;;17.30;99.90;;;;;;5143696;28;20329;-77
2022/06/05 01:40:24;;;;;;;10.50;8.85;;;17.30;99.90;;;;;;5153229;28;20686;-77
2022/06/05 01:43:15;;;;;;;10.45;8.60;;;17.20;99.90;;;;;;5134879;28;20675;-75
2022/06/05 01:46:01;;;;;;;15.50;8.50;;;17.20;99.90;;;;;;5133286;28;20043;-77
2022/06/05 01:48:38;;;;;;;9.73;8.52;;;17.20;99.90;;;;;;5205326;28;20050;-75
2022/06/05 01:51:19;;;;;;;14.77;9.38;;;17.10;99.90;;;;;;5134941;28;20141;-76
2022/06/05 01:53:54;;;;;;;12.55;9.38;;;17.10;99.90;;;;;;5125818;28;20545;-75
2022/06/05 01:56:36;;;;;;;13.63;9.35;;;17.10;99.90;;;;;;5132626;28;20502;-75
2022/06/05 01:59:13;;;;;;;10.45;9.05;;;17.20;99.90;;;;;;5133068;28;20423;-75
2022/06/05 02:01:53;;;;;;;12.98;8.88;;;17.00;99.90;;;;;;5144816;28;20062;-76
2022/06/05 02:04:40;;;;;;;14.43;10.00;;;17.00;99.90;;;;;;5131880;28;20046;-76
2022/06/05 02:07:29;;;;;;;12.55;9.10;;;17.00;99.90;;;;;;5201184;28;20049;-74
2022/06/05 02:10:25;;;;;;;12.07;9.10;;;16.90;99.90;;;;;;5135046;28;20043;-74
2022/06/05 02:12:59;;;;;;;15.70;9.68;;;16.90;99.90;;;;;;5136868;28;20070;-76
2022/06/05 02:15:31;;;;;;;11.63;9.00;;;16.90;99.90;;;;;;5133237;28;20051;-74
2022/06/05 02:18:05;;;;;;;11.95;9.75;;;16.90;99.90;;;;;;5145149;28;20096;-76
2022/06/05 02:20:37;;;;;;;12.95;9.32;;;16.90;99.90;;;;;;5135154;28;20046;-74
2022/06/05 02:23:18;;;;;;;10.13;8.65;;;16.80;99.90;;;;;;5136484;28;20061;-76
2022/06/05 02:25:50;;;;;;;16.67;10.00;;;16.90;99.90;;;;;;5133305;28;20047;-74
2022/06/05 02:28:23;;;;;;;12.45;9.80;;;16.90;99.90;;;;;;5139352;28;20070;-76
2022/06/05 02:31:14;;;;;;;12.48;8.60;;;16.90;99.90;;;;;;5135229;28;20049;-77
2022/06/05 02:33:49;;;;;;;12.18;9.13;;;16.90;99.90;;;;;;5161448;28;20050;-75
2022/06/05 02:36:55;;;;;;;11.70;9.98;;;16.90;99.90;;;;;;5136257;28;20054;-75
2022/06/05 02:39:47;;;;;;;15.20;9.23;;;16.90;99.90;;;;;;5141271;28;20055;-76
2022/06/05 02:42:59;;;;;;;12.63;8.85;;;16.90;99.90;;;;;;5139138;28;20051;-76
2022/06/05 02:46:10;;;;;;;15.32;10.38;;;16.90;99.90;;;;;;5153601;28;20631;-75
2022/06/05 02:48:50;;;;;;;13.82;9.45;;;16.90;99.90;;;;;;5144509;28;20061;-74
2022/06/05 02:51:28;;;;;;;11.90;9.40;;;17.00;99.90;;;;;;5135713;28;20047;-75
2022/06/05 02:54:01;;;;;;;15.55;10.07;;;17.00;99.90;;;;;;5136213;28;20410;-74
2022/06/05 02:56:33;;;;;;;18.17;10.45;;;17.00;99.90;;;;;;5135277;28;20076;-75
2022/06/05 02:59:06;;;;;;;13.75;9.80;;;16.90;99.90;;;;;;5207400;28;20451;-76
2022/06/05 03:04:30;;;;;;;11.02;9.25;;;17.00;99.90;;;;;;5131786;28;20042;-76
2022/06/05 03:07:04;;;;;;;14.00;8.60;;;17.00;99.90;;;;;;5135447;28;20046;-75
2022/06/05 03:09:37;;;;;;;11.20;9.00;;;16.90;99.90;;;;;;5134689;28;20062;-74
2022/06/05 03:12:10;;;;;;;11.30;8.80;;;16.90;99.90;;;;;;5199084;28;20058;-77
2022/06/05 03:14:42;;;;;;;15.27;10.02;;;16.90;99.90;;;;;;5134836;28;20054;-78
2022/06/05 03:17:15;;;;;;;12.32;10.48;;;16.90;99.90;;;;;;5131555;28;20062;-75
2022/06/05 03:19:47;;;;;;;15.88;10.57;;;17.00;99.90;;;;;;5123559;28;20062;-75
2022/06/05 03:22:20;;;;;;;12.80;9.63;;;17.00;99.90;;;;;;5132556;28;20105;-75
2022/06/05 03:24:53;;;;;;;12.30;9.75;;;17.00;99.90;;;;;;5144341;28;20692;-75
2022/06/05 03:27:26;;;;;;;13.02;9.38;;;16.90;99.90;;;;;;5142899;28;21185;-77
2022/06/05 03:29:59;;;;;;;14.57;10.15;;;16.90;99.90;;;;;;5135057;28;20054;-75
2022/06/05 03:32:32;;;;;;;11.82;9.73;;;16.90;99.90;;;;;;5133684;28;20058;-76
2022/06/05 03:35:05;;;;;;;13.23;9.55;;;16.90;99.90;;;;;;5139227;28;20062;-79
2022/06/05 03:37:38;;;;;;;13.48;9.70;;;17.00;99.90;;;;;;5134539;28;20365;-76
2022/06/05 03:40:15;;;;;;;13.68;9.38;;;17.00;99.90;;;;;;5136306;28;20586;-76
2022/06/05 03:42:48;;;;;;;14.90;9.38;;;17.10;99.90;;;;;;5133741;28;20091;-75
2022/06/05 03:45:20;;;;;;;11.85;9.27;;;17.10;99.90;;;;;;5134732;28;20050;-77
2022/06/05 03:47:52;;;;;;;13.88;9.45;;;17.10;99.90;;;;;;5134702;28;20128;-76
2022/06/05 03:50:25;;;;;;;11.95;8.23;;;17.10;99.90;;;;;;5135001;28;20058;-77
2022/06/05 03:52:58;;;;;;;13.83;8.97;;;17.20;99.90;;;;;;5135263;28;20517;-75
2022/06/05 03:55:32;;;;;;;12.40;8.82;;;17.20;99.90;;;;;;5137366;28;20076;-74
2022/06/05 03:58:04;;;;;;;;;;;17.20;99.90;;;;;;5136527;28;20051;-74
2022/06/05 04:00:37;;;;;;;13.50;9.38;;;17.10;99.90;;;;;;5130810;28;19924;-75
2022/06/05 04:03:09;;;;;;;9.95;8.25;;;17.10;99.90;;;;;;5134135;28;20055;-77
2022/06/05 04:05:43;;;;;;;14.52;9.15;;;17.20;99.90;;;;;;5133579;28;20042;-77
2022/06/05 04:08:17;;;;;;;10.20;8.02;;;17.30;99.90;;;;;;5135233;28;20047;-77
2022/06/05 04:10:49;;;;;;;10.40;8.40;;;17.30;99.90;;;;;;5131496;28;20055;-76
2022/06/05 04:13:21;;;;;;;10.32;8.02;;;17.40;99.90;;;;;;5140020;28;20058;-77
2022/06/05 04:15:54;;;;;;;11.48;8.48;;;17.40;99.90;;;;;;5133470;28;20145;-76
2022/06/05 04:18:27;;;;;;;9.93;8.25;;;17.40;99.90;;;;;;5139862;28;20058;-75
2022/06/05 04:21:04;;;;;;;11.43;8.13;;;17.50;99.90;;;;;;5144149;28;20054;-75
2022/06/05 04:23:36;;;;;;;10.32;8.07;;;17.50;99.90;;;;;;5141184;28;20563;-74
2022/06/05 04:26:12;;;;;;;15.23;8.13;;;17.50;99.90;;;;;;5207432;28;20053;-77
2022/06/05 04:28:45;;;;;;;12.13;8.25;;;17.60;99.90;;;;;;5139630;28;20058;-77
2022/06/05 04:31:27;;;;;;;9.30;7.68;;;17.60;99.90;;;;;;5141707;28;20058;-76
2022/06/05 04:34:03;;;;;;;11.00;7.60;;;17.60;99.90;;;;;;5145561;28;20050;-76
2022/06/05 04:36:35;;;;;;;13.52;8.80;;;17.70;99.90;;;;;;5141480;28;20758;-75
2022/06/05 04:39:09;;;;;;;9.73;8.10;;;17.70;99.90;;;;;;5155258;28;20054;-78
2022/06/05 04:41:42;;;;;;;15.90;9.70;;;17.80;99.90;;;;;;5143934;28;20057;-75
2022/06/05 04:44:16;;;;;;;13.57;9.30;;;17.90;99.90;;;;;;5140893;28;20049;-75
2022/06/05 04:46:51;;;;;;;12.13;8.95;;;17.90;99.90;;;;;;5176312;28;20633;-75
2022/06/05 04:49:24;;;;;;;10.80;9.23;;;17.90;99.90;;;;;;5143346;28;20049;-75
2022/06/05 04:51:56;;;;;;;18.08;9.77;;;18.00;99.90;;;;;;5143330;28;20050;-76
2022/06/05 04:54:29;;;;;;;14.40;9.18;;;18.00;99.90;;;;;;5141556;28;20050;-76
2022/06/05 04:57:02;;;;;;;12.80;8.70;;;18.00;99.90;;;;;;5136164;28;20042;-78
2022/06/05 04:59:36;;;;;;;12.45;9.50;;;18.00;99.90;;;;;;5135620;28;20054;-80
2022/06/05 05:02:09;;;;;;;13.70;9.77;;;18.10;99.90;;;;;;5132809;28;20054;-76
2022/06/05 05:04:41;;;;;;;9.52;8.27;;;18.10;99.90;;;;;;5137578;28;20046;-76
2022/06/05 05:07:15;;;;;;;13.43;9.05;;;18.20;99.90;;;;;;5146816;28;20051;-81
2022/06/05 05:09:52;;;;;;;11.52;8.20;;;18.20;99.90;;;;;;5133817;28;20058;-76
2022/06/05 05:12:24;;;;;;;10.98;8.43;;;18.30;99.90;;;;;;5131612;28;20054;-78
2022/06/05 05:14:56;;;;;;;12.35;9.32;;;18.40;99.90;;;;;;5142979;28;20055;-77
2022/06/05 05:17:29;;;;;;;11.70;8.68;;;18.40;99.90;;;;;;5161896;28;20054;-77
2022/06/05 05:20:02;;;;;;;11.38;8.40;;;18.50;99.90;;;;;;5146544;28;20049;-76
2022/06/05 05:22:37;;;;;;;14.55;8.73;;;18.60;99.90;;;;;;5145393;28;20449;-77
2022/06/05 05:25:11;;;;;;;11.18;8.23;;;18.80;99.90;;;;;;5136334;28;20506;-76
2022/06/05 05:27:43;;;;;;;;;;;18.80;99.90;;;;;;5152056;28;20061;-76
2022/06/05 05:30:16;;;;;;;11.68;8.23;;;19.00;99.90;;;;;;5135706;28;19926;-75
2022/06/05 05:32:48;;;;;;;13.43;8.10;;;19.00;99.90;;;;;;5212912;28;20054;-77
2022/06/05 05:35:21;;;;;;;13.80;8.05;;;19.10;99.90;;;;;;5137159;28;20050;-77
2022/06/05 05:37:54;;;;;;;10.80;8.13;;;19.10;99.90;;;;;;5134202;28;20047;-78
2022/06/05 05:43:18;;;;;;;13.75;8.30;;;19.30;99.90;;;;;;5139471;28;20059;-78
2022/06/05 05:45:50;;;;;;;9.77;7.90;;;19.30;99.90;;;;;;5137730;28;20047;-76
2022/06/05 05:48:23;;;;;;;11.55;8.05;;;19.20;99.90;;;;;;5136370;28;20529;-75
2022/06/05 05:50:58;;;;;;;12.40;8.02;;;19.20;99.90;;;;;;5135786;28;20054;-77
2022/06/05 05:53:30;;;;;;;12.52;7.60;;;19.20;99.90;;;;;;5135730;28;20051;-78
2022/06/05 05:56:08;;;;;;;17.85;7.65;;;19.20;99.90;;;;;;5141236;28;20054;-76
2022/06/05 05:58:40;;;;;;;13.70;8.25;;;19.20;99.90;;;;;;5140500;28;20069;-76
2022/06/05 06:01:13;;;;;;;8.88;7.93;;;19.20;99.90;;;;;;5148971;28;20045;-76
2022/06/05 06:03:45;;;;;;;10.32;7.70;;;19.20;99.90;;;;;;5195907;28;20821;-80
2022/06/05 06:06:32;;;;;;;10.95;7.60;;;19.20;99.90;;;;;;5136925;28;20065;-77
2022/06/05 06:09:05;;;;;;;10.65;7.38;;;19.20;99.90;;;;;;5137644;28;20039;-77
2022/06/05 06:11:38;;;;;;;10.52;7.95;;;19.30;99.90;;;;;;5136944;28;20047;-77
2022/06/05 06:14:10;;;;;;;10.60;7.35;;;19.30;99.90;;;;;;5136495;28;20051;-74
2022/06/05 06:16:42;;;;;;;17.38;7.38;;;19.40;99.90;;;;;;5134900;28;20894;-77
2022/06/05 06:19:15;;;;;;;11.37;7.00;;;19.50;99.90;;;;;;5149557;28;20054;-74
2022/06/05 06:21:47;;;;;;;12.15;7.30;;;19.60;99.90;;;;;;5138472;28;20047;-74
2022/06/05 06:24:20;;;;;;;11.63;6.70;;;19.80;99.90;;;;;;5139015;28;20054;-78
2022/06/05 06:26:52;;;;;;;8.90;6.78;;;20.00;99.90;;;;;;5134305;28;20042;-78
2022/06/05 06:29:25;;;;;;;10.53;6.77;;;20.20;99.90;;;;;;5136278;28;20061;-75
2022/06/05 06:31:58;;;;;;;12.95;6.70;;;20.30;99.90;;;;;;5137035;28;20047;-76
2022/06/05 06:34:30;;;;;;;7.93;6.47;;;20.50;99.90;;;;;;5133719;28;20060;-77
2022/06/05 06:37:03;;;;;;;13.70;7.55;;;20.60;99.90;;;;;;5134260;28;20043;-74
2022/06/05 06:39:36;;;;;;;12.13;6.95;;;20.60;99.90;;;;;;5136370;28;20062;-75
2022/06/05 06:42:08;;;;;;;10.07;6.72;;;20.60;99.90;;;;;;5139037;28;20751;-77
2022/06/05 06:44:41;;;;;;;9.15;6.35;;;20.70;99.90;;;;;;5171219;28;20047;-80
2022/06/05 06:47:13;;;;;;;8.57;6.43;;;20.70;99.90;;;;;;5134626;28;20054;-74
2022/06/05 06:49:46;;;;;;;13.38;6.63;;;20.80;99.90;;;;;;5145058;28;20050;-74
2022/06/05 06:52:18;;;;;;;11.55;6.63;;;21.00;99.90;;;;;;5133705;28;20085;-76
2022/06/05 06:54:51;;;;;;;8.27;6.22;;;21.20;99.90;;;;;;5134292;28;20418;-75
2022/06/05 06:57:23;;;;;;;9.43;6.22;;;21.40;99.90;;;;;;5131517;28;20204;-79
2022/06/05 06:59:56;;;;;;;8.57;5.83;;;21.50;99.90;;;;;;5143560;28;20048;-78
2022/06/05 07:02:28;;;;;;;8.77;5.88;;;21.50;99.90;;;;;;5133414;28;20798;-75
2022/06/05 07:05:01;;;;;;;11.65;6.68;;;21.50;99.90;;;;;;5135733;28;20043;-77
2022/06/05 07:07:33;;;;;;;11.18;5.97;;;21.50;99.90;;;;;;5140981;28;20046;-80
2022/06/05 07:10:07;;;;;;;10.13;6.18;;;21.50;99.90;;;;;;5132950;28;20046;-75
2022/06/05 07:12:39;;;;;;;8.85;6.13;;;21.50;99.90;;;;;;5131437;28;20046;-78
2022/06/05 07:15:12;;;;;;;11.43;6.38;;;21.60;99.90;;;;;;5134446;28;20050;-76
2022/06/05 07:17:44;;;;;;;10.02;6.22;;;21.70;99.90;;;;;;5134301;28;20057;-76
2022/06/05 07:20:17;;;;;;;6.55;5.82;;;21.70;99.90;;;;;;5133190;28;20069;-78
2022/06/05 07:22:49;;;;;;;13.98;6.75;;;21.70;99.90;;;;;;5134027;28;20051;-77
2022/06/05 07:25:25;;;;;;;10.82;6.82;;;21.70;99.90;;;;;;5133059;28;20054;-77
2022/06/05 07:27:58;;;;;;;12.07;5.95;;;21.80;99.90;;;;;;5134968;28;20053;-74
2022/06/05 07:30:31;;;;;;;6.97;5.68;;;21.80;99.90;;;;;;5133841;28;20051;-75
2022/06/05 07:33:03;;;;;;;7.88;6.05;;;21.90;99.90;;;;;;5127009;28;20044;-76
2022/06/05 07:35:36;;;;;;;9.52;5.70;;;22.00;99.90;;;;;;5135451;28;20421;-79
2022/06/05 07:38:10;;;;;;;9.88;6.43;;;22.00;99.90;;;;;;5130940;28;20047;-76
2022/06/05 07:40:43;;;;;;;7.60;6.63;;;22.10;99.90;;;;;;5185433;28;20046;-75
2022/06/05 07:43:15;;;;;;;7.78;6.05;;;22.10;99.30;;;;;;5133453;28;20055;-79
2022/06/05 07:45:48;;;;;;;9.52;6.88;;;22.10;99.80;;;;;;5133124;28;20046;-75
2022/06/05 07:48:22;;;;;;;9.65;7.22;;;22.10;98.90;;;;;;5138496;28;20050;-76
2022/06/05 07:56:55;;;;;;;8.98;6.72;;;22.30;99.90;;;;;;5133547;28;20047;-76
2022/06/05 07:59:30;;;;;;;9.77;6.20;;;22.30;99.20;;;;;;5136941;28;20042;-80
2022/06/05 08:02:06;;;;;;;11.68;7.10;;;22.50;98.90;;;;;;5137058;28;20510;-75
2022/06/05 08:04:39;;;;;;;7.80;6.45;;;22.70;97.40;;;;;;5135104;28;20043;-75
2022/06/05 08:07:14;;;;;;;9.25;6.40;;;22.80;97.80;;;;;;5135283;28;20042;-75
2022/06/05 08:09:47;;;;;;;10.07;5.97;;;23.10;96.90;;;;;;5130495;28;20481;-76
2022/06/05 08:12:21;;;;;;;8.57;5.65;;;23.30;96.00;;;;;;5138572;28;20413;-76
2022/06/05 08:14:54;;;;;;;7.60;5.28;;;23.40;96.20;;;;;;5148577;28;20065;-75
2022/06/05 08:17:33;;;;;;;9.02;6.15;;;23.50;94.20;;;;;;5134975;28;20051;-76
2022/06/05 08:20:07;;;;;;;8.30;6.47;;;23.50;94.20;;;;;;5138535;28;20051;-75
2022/06/05 08:22:40;;;;;;;9.25;6.50;;;23.50;94.10;;;;;;5136780;28;20088;-76
2022/06/05 08:25:14;;;;;;;10.67;6.87;;;23.50;94.10;;;;;;5139467;28;20521;-75
2022/06/05 08:27:48;;;;;;;9.93;6.47;;;23.60;94.50;;;;;;5134291;28;20050;-76
2022/06/05 08:30:20;;;;;;;13.82;7.13;;;23.70;94.20;;;;;;5193149;28;20038;-75
2022/06/05 08:32:53;;;;;;;10.50;6.47;;;23.60;94.60;;;;;;5139072;28;20494;-78
2022/06/05 08:35:25;;;;;;;9.73;6.70;;;23.80;94.40;;;;;;5133225;28;20148;-77
2022/06/05 08:41:27;;;;;;;9.68;7.25;;;23.80;93.70;;;;;;5138282;28;20043;-75
2022/06/05 08:44:13;;;;;;;11.30;7.82;;;23.80;93.20;;;;;;5134952;28;20047;-76
2022/06/05 08:47:11;;;;;;;12.20;7.75;;;23.60;93.10;;;;;;5134999;28;20604;-76
2022/06/05 08:49:47;;;;;;;10.45;7.70;;;23.60;93.20;;;;;;5133267;28;20046;-81
2022/06/05 08:52:35;;;;;;;14.13;8.82;;;23.60;93.60;;;;;;5133041;28;20062;-76
2022/06/05 08:55:36;;;;;;;11.07;8.27;;;23.50;93.50;;;;;;5131780;28;20399;-76
2022/06/05 08:58:20;;;;;;;10.00;7.88;;;23.40;93.50;;;;;;5130228;28;20039;-77
2022/06/05 09:01:00;;;;;;;8.27;7.43;;;23.40;94.30;;;;;;5196533;28;20058;-75
2022/06/05 09:03:48;;;;;;;12.55;8.57;;;23.40;94.60;;;;;;5132187;28;20039;-77
2022/06/05 09:06:35;;;;;;;10.88;8.85;;;23.30;93.80;;;;;;5131801;28;20083;-78
2022/06/05 09:09:18;;;;;;;12.75;9.93;;;23.20;94.80;;;;;;5137779;28;20057;-75
2022/06/05 09:12:09;;;;;;;11.63;9.47;;;23.00;95.10;;;;;;5135501;28;20038;-75
2022/06/05 09:14:55;;;;;;;12.20;9.25;;;23.00;95.70;;;;;;5172702;28;20042;-78
2022/06/05 09:17:28;;;;;;;9.95;8.65;;;22.90;96.20;;;;;;5136427;28;20414;-77
2022/06/05 09:20:01;;;;;;;11.05;9.82;;;22.80;97.20;;;;;;5136411;28;20042;-76
2022/06/05 09:22:45;;;;;;;13.70;9.30;;;22.70;97.30;;;;;;5133222;28;20050;-77
2022/06/05 09:25:31;;;;;;;12.50;9.88;;;22.70;98.00;;;;;;5135550;28;20054;-76
2022/06/05 09:28:38;;;;;;;11.30;10.10;;;22.60;98.10;;;;;;5133603;28;21292;-76
2022/06/05 09:31:50;;;;;;;13.25;9.82;;;22.70;98.30;;;;;;5135961;28;20039;-75
2022/06/05 09:35:02;;;;;;;12.77;10.07;;;22.70;98.60;;;;;;5153919;28;20571;-80
2022/06/05 09:37:42;;;;;;;10.43;8.68;;;22.70;99.50;;;;;;5148926;28;20044;-75
2022/06/05 09:40:25;;;;;;;12.30;9.73;;;22.80;99.00;;;;;;5153831;28;20043;-75
2022/06/05 09:43:25;;;;;;;13.02;9.45;;;22.70;98.80;;;;;;5143041;28;20043;-75
2022/06/05 09:46:17;;;;;;;17.02;10.07;;;22.60;98.90;;;;;;5135221;28;20383;-76
2022/06/05 09:48:55;;;;;;;11.55;9.80;;;22.70;99.50;;;;;;5140534;28;20058;-76
2022/06/05 09:51:28;;;;;;;12.23;9.38;;;22.60;99.60;;;;;;5137533;28;20053;-77
2022/06/05 09:54:31;;;;;;;10.77;9.68;;;22.70;99.90;;;;;;5136642;28;20057;-75
2022/06/05 10:00:36;;;;;;;13.60;10.77;;;22.60;99.90;;;;;;5139431;28;20518;-74
2022/06/05 10:03:22;;;;;;;11.52;10.32;;;22.50;99.90;;;;;;5139548;28;20047;-76
2022/06/05 10:06:17;;;;;;;12.18;9.57;;;22.60;99.90;;;;;;5137821;28;20065;-75
2022/06/05 10:09:18;;;;;;;13.57;12.18;;;22.60;99.90;;;;;;5146593;28;20046;-77
2022/06/05 10:11:58;;;;;;;11.82;10.52;;;22.50;99.90;;;;;;5140081;28;20057;-76
2022/06/05 10:14:47;;;;;;;15.63;10.95;;;22.60;99.90;;;;;;5140821;28;20977;-77
2022/06/05 10:17:45;;;;;;;15.52;11.02;;;22.70;99.90;;;;;;5139682;28;20058;-76
2022/06/05 10:20:39;;;;;;;14.40;10.95;;;22.90;99.90;;;;;;5146199;28;20051;-78
2022/06/05 10:23:28;;;;;;;13.27;10.90;;;23.10;99.90;;;;;;5135298;28;20052;-77
2022/06/05 10:26:13;;;;;;;15.88;11.60;;;23.30;99.90;;;;;;5139322;28;20680;-75
2022/06/05 10:28:49;;;;;;;13.30;11.63;;;23.60;99.10;;;;;;5137715;28;20061;-76
2022/06/05 10:31:22;;;;;;;17.48;12.10;;;23.80;98.80;;;;;;5137964;28;20453;-76
2022/06/05 10:34:16;;;;;;;17.67;13.13;;;23.70;97.80;;;;;;5146264;28;20042;-75
2022/06/05 10:36:57;;;;;;;;;;;23.70;96.60;;;;;;5136179;28;20047;-79
2022/06/05 10:39:35;;;;;;;16.52;13.95;;;23.60;96.40;;;;;;5140534;28;19929;-75
2022/06/05 10:42:39;;;;;;;18.17;14.48;;;23.60;97.00;;;;;;5138956;28;20914;-75
2022/06/05 10:45:42;;;;;;;16.70;15.00;;;23.60;97.80;;;;;;5137323;28;20050;-76
2022/06/05 10:48:56;;;;;;;16.00;14.40;;;23.70;97.00;;;;;;5133709;28;20058;-76
2022/06/05 10:51:49;;;;;;;20.08;17.13;;;23.80;97.20;;;;;;5135146;28;20046;-77
2022/06/05 10:54:32;;;;;;;19.13;15.65;;;23.60;96.30;;;;;;5132453;28;20050;-76
2022/06/05 10:57:33;;;;;;;20.20;17.50;;;23.50;97.50;;;;;;5132395;28;20341;-74
2022/06/05 11:00:20;;;;;;;17.92;15.57;;;23.50;97.00;;;;;;5132781;28;20531;-79
2022/06/05 11:03:25;;;;;;;17.42;15.23;;;23.40;96.90;;;;;;5136521;28;20046;-75
2022/06/05 11:06:10;;;;;;;;;;;23.60;97.60;;;;;;5136797;28;20043;-75
2022/06/05 11:09:16;;;;;;;17.55;15.68;;;23.60;96.40;;;;;;5134470;28;19933;-76
2022/06/05 11:15:12;;;;;;;20.98;15.32;;;23.60;95.90;;;;;;5133159;28;20440;-75
2022/06/05 11:18:16;;;;;;;16.52;14.90;;;23.60;96.80;;;;;;5131506;28;20050;-78
2022/06/05 11:20:56;;;;;;;28.90;25.35;;;23.70;98.40;;;;;;5131280;28;20051;-79
2022/06/05 11:23:34;;;;;;;16.90;15.05;;;23.80;97.70;;;;;;5102223;28;20058;-78
2022/06/05 11:26:25;;;;;;;17.80;14.73;;;23.80;97.00;;;;;;5132998;28;20054;-77
2022/06/05 11:29:26;;;;;;;16.65;14.50;;;23.70;96.20;;;;;;5142882;28;20521;-76
2022/06/05 11:32:16;;;;;;;18.30;16.27;;;23.80;96.50;;;;;;5134233;28;20054;-76
2022/06/05 11:34:52;;;;;;;17.52;14.82;;;23.80;96.40;;;;;;5136279;28;20042;-77
2022/06/05 11:37:35;;;;;;;16.67;14.93;;;23.90;96.70;;;;;;5135992;28;20091;-76
2022/06/05 11:40:45;;;;;;;17.17;15.02;;;23.90;95.80;;;;;;5136851;28;20422;-76
2022/06/05 11:43:32;;;;;;;16.25;14.52;;;23.90;96.80;;;;;;5138198;28;20054;-76
2022/06/05 11:46:32;;;;;;;19.58;15.38;;;23.80;95.70;;;;;;5150678;28;20073;-75
2022/06/05 11:50:01;;;;;;;16.67;14.93;;;23.80;95.20;;;;;;5136780;28;20065;-79
2022/06/05 11:53:01;;;;;;;19.85;14.80;;;23.80;95.60;;;;;;5194068;28;20060;-76
2022/06/05 11:55:56;;;;;;;19.33;14.57;;;23.90;94.90;;;;;;5194122;28;20099;-76
2022/06/05 11:58:44;;;;;;;16.92;15.00;;;24.00;96.40;;;;;;5202378;28;20050;-75
2022/06/05 12:01:23;;;;;;;15.32;13.75;;;24.10;93.90;;;;;;5133194;28;20691;-77
2022/06/05 12:04:29;;;;;;;19.55;13.88;;;24.00;94.50;;;;;;5221055;28;20042;-77
2022/06/05 12:07:04;;;;;;;18.23;14.32;;;24.00;94.80;;;;;;5135818;28;20158;-78
2022/06/05 12:09:48;;;;;;;18.40;14.23;;;24.10;95.50;;;;;;5134384;28;20043;-76
2022/06/05 12:12:37;;;;;;;15.73;14.07;;;24.10;94.90;;;;;;5137370;28;20066;-77
2022/06/05 12:15:27;;;;;;;18.13;14.55;;;24.10;95.20;;;;;;5136382;28;20050;-78
2022/06/05 12:18:24;;;;;;;17.88;14.45;;;23.90;94.90;;;;;;5136321;28;20047;-73
2022/06/05 12:21:19;;;;;;;16.30;14.60;;;23.90;95.60;;;;;;5140062;28;20061;-77
2022/06/05 12:24:02;;;;;;;17.10;15.15;;;23.80;96.50;;;;;;5138010;28;20544;-76
2022/06/05 12:27:04;;;;;;;18.35;14.32;;;23.80;95.50;;;;;;5150992;28;20500;-76
2022/06/05 12:30:03;;;;;;;16.08;14.38;;;23.80;95.60;;;;;;5141808;28;20055;-76
2022/06/05 12:32:42;;;;;;;15.60;13.98;;;23.70;95.80;;;;;;5138547;28;20262;-76
2022/06/05 12:35:24;;;;;;;16.95;15.10;;;23.80;96.20;;;;;;5138263;28;20051;-78
2022/06/05 12:38:34;;;;;;;17.42;14.38;;;23.70;95.90;;;;;;5144143;28;20072;-78
2022/06/05 12:41:23;;;;;;;17.90;14.20;;;23.90;96.20;;;;;;5142336;28;20409;-76
2022/06/05 12:44:18;;;;;;;16.42;14.50;;;24.10;96.00;;;;;;5136479;28;20051;-75
2022/06/05 12:47:06;;;;;;;15.65;14.05;;;24.30;95.50;;;;;;5147027;28;20413;-78
2022/06/05 12:50:25;;;;;;;15.25;13.50;;;24.40;94.40;;;;;;5144864;28;20128;-77
2022/06/05 12:53:24;;;;;;;16.42;14.55;;;24.50;93.70;;;;;;5145723;28;20046;-76
2022/06/05 12:56:07;;;;;;;16.95;13.93;;;24.60;93.90;;;;;;5139925;28;20043;-79
2022/06/05 12:59:01;;;;;;;15.80;14.17;;;24.70;94.50;;;;;;5124983;28;20536;-76
2022/06/05 13:01:46;;;;;;;15.27;13.60;;;24.70;94.50;;;;;;5132863;28;20302;-77
2022/06/05 13:04:45;;;;;;;14.63;12.95;;;24.70;93.20;;;;;;5133658;28;20051;-76
2022/06/05 13:07:40;;;;;;;15.20;13.55;;;24.50;93.30;;;;;;5134039;28;20077;-76
2022/06/05 13:10:30;;;;;;;14.15;11.50;;;24.40;93.50;;;;;;5134703;28;20035;-76
2022/06/05 13:13:21;;;;;;;18.30;12.50;;;24.30;93.30;;;;;;5145037;28;20062;-76
2022/06/05 13:16:01;;;;;;;18.77;12.70;;;24.10;93.90;;;;;;5140643;28;20053;-75
2022/06/05 13:18:52;;;;;;;15.60;14.00;;;24.00;94.60;;;;;;5136922;28;20066;-77
2022/06/05 13:21:47;;;;;;;17.65;14.02;;;23.90;95.30;;;;;;5135651;28;20418;-77
2022/06/05 13:24:28;;;;;;;15.98;13.43;;;23.80;95.90;;;;;;5134846;28;20042;-76
2022/06/05 13:27:14;;;;;;;19.60;13.70;;;23.60;96.20;;;;;;5198782;28;20050;-77
2022/06/05 13:30:09;;;;;;;18.15;13.55;;;23.60;96.50;;;;;;5134225;28;20047;-76
2022/06/05 13:33:00;;;;;;;17.80;14.63;;;23.60;98.00;;;;;;5133748;28;20043;-77
2022/06/05 13:35:53;;;;;;;16.58;14.85;;;23.50;98.80;;;;;;5136694;28;20051;-75
2022/06/05 13:38:42;;;;;;;18.43;16.57;;;23.40;99.80;;;;;;5136154;28;20069;-74
2022/06/05 13:41:26;;;;;;;20.42;15.93;;;23.20;99.90;;;;;;5136912;28;20324;-77
2022/06/05 13:44:20;;;;;;;21.98;17.27;;;23.10;99.90;;;;;;5134087;28;20058;-76
2022/06/05 13:47:41;;;;;;;18.40;16.45;;;23.00;99.90;;;;;;5198100;28;20050;-76
2022/06/05 13:50:40;;;;;;;22.70;16.15;;;22.90;99.90;;;;;;5169611;28;20085;-75
2022/06/05 13:53:19;;;;;;;23.02;18.20;;;22.90;99.90;;;;;;5138005;28;21166;-75
2022/06/05 13:56:19;;;;;;;20.35;17.73;;;22.90;99.90;;;;;;5134095;28;20054;-75
2022/06/05 13:58:59;;;;;;;20.83;18.25;;;22.90;99.90;;;;;;5135156;28;20062;-76
2022/06/05 14:01:47;;;;;;;22.17;18.02;;;22.80;99.90;;;;;;5132749;28;20047;-76
2022/06/05 14:04:25;;;;;;;22.25;17.23;;;22.70;99.90;;;;;;5136568;28;20073;-75
2022/06/05 14:07:18;;;;;;;19.92;17.17;;;22.70;99.90;;;;;;5122485;28;20058;-74
2022/06/05 14:10:04;;;;;;;18.77;16.77;;;22.70;99.90;;;;;;5143318;28;20572;-77
2022/06/05 14:12:46;;;;;;;19.63;15.45;;;22.60;99.90;;;;;;5134664;28;20665;-74